Time;durP1;ratioP1;P1;durP2;ratioP2;P2;SDS_P1;SDS_P2;PMS_P1;PMS_P2;Temp;Humidity;BMP_temperature;BMP_pressure;BME280_temperature;BME280_humidity;BME280_pressure;Samples;Min_cycle;Max_cycle;Signal;HPM_P1;HPM_P2
2022/08/22 00:01:32;;;;;;;10.10;3.05;;;20.50;96.30;;;-147.18;100.00;67318.16;4983990;28;20082;-79
2022/08/22 00:04:14;;;;;;;8.60;2.75;;;20.40;96.40;;;-147.18;100.00;67318.16;4992297;28;20376;-78
2022/08/22 00:06:52;;;;;;;7.30;2.70;;;20.40;96.70;;;-147.18;100.00;67318.16;4989942;28;20045;-79
2022/08/22 00:09:36;;;;;;;8.52;3.20;;;20.30;96.90;;;-147.18;100.00;67318.16;4990339;28;20044;-79
2022/08/22 00:12:17;;;;;;;9.30;3.15;;;20.30;97.00;;;-147.18;100.00;67318.16;4988842;28;20048;-78
2022/08/22 00:14:56;;;;;;;9.80;3.35;;;20.30;97.10;;;-147.18;100.00;67318.16;4984836;28;20507;-79
2022/08/22 00:17:47;;;;;;;9.07;3.40;;;20.30;97.20;;;-147.18;100.00;67318.16;4991702;28;20046;-79
2022/08/22 00:20:24;;;;;;;7.82;3.00;;;20.20;97.10;;;-147.18;100.00;67318.16;4989345;28;20210;-79
2022/08/22 00:22:58;;;;;;;9.65;3.65;;;20.20;97.20;;;-147.18;100.00;67318.16;4991762;28;20479;-79
2022/08/22 00:25:46;;;;;;;9.38;3.13;;;20.20;97.50;;;-147.18;100.00;67318.16;4990672;28;20039;-78
2022/08/22 00:28:19;;;;;;;11.88;3.30;;;20.10;97.80;;;-147.18;100.00;67318.16;4991204;28;20057;-79
2022/08/22 00:35:18;;;;;;;6.68;3.00;;;20.10;98.00;;;-147.18;100.00;67318.16;4960265;28;20062;-79
2022/08/22 00:38:59;;;;;;;11.57;3.53;;;20.00;98.20;;;-147.18;100.00;67318.16;4969668;28;20043;-78
2022/08/22 00:57:29;;;;;;;7.78;3.33;;;19.80;99.10;;;-147.18;100.00;67318.16;4935942;23;20060;-77
2022/08/22 01:01:07;;;;;;;8.73;3.17;;;19.70;99.20;;;-147.18;100.00;67318.16;4861301;29;20062;-80
2022/08/22 01:09:13;;;;;;;;;;;;;;;;;;;;;
2022/08/22 01:16:16;;;;;;;;;;;19.60;99.70;;;-147.18;100.00;67318.16;4821807;29;20046;-80
2022/08/22 01:18:59;;;;;;;;;;;19.60;99.90;;;-147.18;100.00;67318.16;4837665;29;20071;-77
2022/08/22 01:22:05;;;;;;;;;;;19.60;99.90;;;-147.18;100.00;67318.16;4837219;29;19938;-77
2022/08/22 01:25:17;;;;;;;;;;;19.50;99.90;;;-147.18;100.00;67318.16;4837047;29;19931;-77
2022/08/22 01:28:08;;;;;;;;;;;19.50;99.90;;;-147.18;100.00;67318.16;4821965;29;19960;-77
2022/08/22 01:31:01;;;;;;;;;;;19.50;99.90;;;-147.18;100.00;67318.16;4836401;29;19928;-77
2022/08/22 01:33:53;;;;;;;;;;;19.40;99.90;;;-147.18;100.00;67318.16;4836055;29;19924;-77
2022/08/22 01:36:35;;;;;;;;;;;19.50;99.90;;;-147.18;100.00;67318.16;4836779;29;19934;-77
2022/08/22 01:39:31;;;;;;;;;;;19.50;99.90;;;-147.18;100.00;67318.16;4837431;29;20367;-77
2022/08/22 02:01:59;;;;;;;;;;;19.20;99.90;;;-147.18;100.00;67318.16;4960230;28;19945;-79
2022/08/22 02:04:35;;;;;;;;;;;19.20;99.90;;;-147.18;100.00;67318.16;4990822;28;19925;-79
2022/08/22 02:07:05;;;;;;;;;;;19.20;99.90;;;-147.18;100.00;67318.16;4990769;28;19929;-79
2022/08/22 02:09:39;;;;;;;;;;;19.20;99.90;;;-147.18;100.00;67318.16;4988772;28;20018;-79
2022/08/22 02:12:26;;;;;;;;;;;19.20;99.90;;;-147.18;100.00;67318.16;4988294;28;20016;-79
2022/08/22 02:15:02;;;;;;;;;;;19.20;99.90;;;-147.18;100.00;67318.16;4984551;28;20301;-79
2022/08/22 02:17:32;;;;;;;;;;;19.10;99.90;;;-147.18;100.00;67318.16;4977780;28;19972;-79
2022/08/22 02:20:06;;;;;;;;;;;19.10;99.90;;;-147.18;100.00;67318.16;4987479;28;19922;-79
2022/08/22 02:22:38;;;;;;;;;;;19.10;99.90;;;-147.18;100.00;67318.16;4994595;28;20301;-79
2022/08/22 02:25:12;;;;;;;;;;;19.10;99.90;;;-147.18;100.00;67318.16;4993865;28;19928;-79
2022/08/22 02:27:47;;;;;;;;;;;19.00;99.90;;;-147.18;100.00;67318.16;4993712;28;19975;-79
2022/08/22 02:30:18;;;;;;;;;;;19.00;99.90;;;-147.18;100.00;67318.16;4990013;28;19922;-79
2022/08/22 02:32:55;;;;;;;;;;;19.00;99.90;;;-147.18;100.00;67318.16;4979255;28;19922;-79
2022/08/22 02:35:29;;;;;;;;;;;19.00;99.90;;;-147.18;100.00;67318.16;4991061;28;19936;-77
2022/08/22 02:38:12;;;;;;;;;;;19.00;99.90;;;-147.18;100.00;67318.16;5018447;23;19953;-88
2022/08/22 02:40:41;;;;;;;;;;;19.00;99.90;;;-147.18;100.00;67318.16;5004232;28;19921;-87
2022/08/22 02:43:17;;;;;;;;;;;19.00;99.90;;;-147.18;100.00;67318.16;5013544;28;19922;-87
2022/08/22 02:45:50;;;;;;;;;;;18.90;99.90;;;-147.18;100.00;67318.16;5012720;28;19965;-87
2022/08/22 02:48:27;;;;;;;;;;;18.90;99.90;;;-147.18;100.00;67318.16;4997016;28;19922;-88
2022/08/22 02:50:58;;;;;;;;;;;18.90;99.90;;;-147.18;100.00;67318.16;4987965;28;19928;-87
2022/08/22 02:53:33;;;;;;;;;;;18.90;99.90;;;-147.18;100.00;67318.16;4986533;28;20271;-87
2022/08/22 02:56:04;;;;;;;;;;;18.90;99.90;;;-147.18;100.00;67318.16;4993497;28;19921;-87
2022/08/22 02:58:39;;;;;;;;;;;18.80;99.90;;;-147.18;100.00;67318.16;4991806;28;19921;-86
2022/08/22 03:01:23;;;;;;;;;;;18.80;99.90;;;-147.18;100.00;67318.16;4991810;28;20016;-87
2022/08/22 03:03:52;;;;;;;;;;;18.80;99.90;;;-147.18;100.00;67318.16;4992817;28;19957;-87
2022/08/22 03:06:37;;;;;;;;;;;18.80;99.90;;;-147.18;100.00;67318.16;4993443;28;19921;-87
2022/08/22 03:09:21;;;;;;;;;;;18.80;99.90;;;-147.18;100.00;67318.16;4990171;28;20012;-87
2022/08/22 03:11:54;;;;;;;;;;;18.80;99.90;;;-147.18;100.00;67318.16;4982833;28;20358;-87
2022/08/22 03:14:26;;;;;;;;;;;18.70;99.90;;;-147.18;100.00;67318.16;4990538;28;20275;-88
2022/08/22 03:17:01;;;;;;;;;;;18.70;99.90;;;-147.18;100.00;67318.16;4991351;28;19926;-87
2022/08/22 03:19:43;;;;;;;;;;;18.70;99.90;;;-147.18;100.00;67318.16;4991045;28;19922;-87
2022/08/22 03:22:16;;;;;;;;;;;18.60;99.90;;;-147.18;100.00;67318.16;4987117;28;19929;-88
2022/08/22 03:24:50;;;;;;;;;;;18.60;99.90;;;-147.18;100.00;67318.16;4992787;28;19932;-87
2022/08/22 03:27:22;;;;;;;;;;;18.70;99.90;;;-147.18;100.00;67318.16;4990595;28;20354;-87
2022/08/22 03:29:53;;;;;;;;;;;18.60;99.90;;;-147.18;100.00;67318.16;4993449;28;19922;-87
2022/08/22 03:32:23;;;;;;;;;;;18.60;99.90;;;-147.18;100.00;67318.16;4988369;28;20016;-87
2022/08/22 03:34:59;;;;;;;;;;;18.60;99.90;;;-147.18;100.00;67318.16;4992595;28;19921;-87
2022/08/22 03:37:36;;;;;;;;;;;18.60;99.90;;;-147.18;100.00;67318.16;4991131;28;20356;-87
2022/08/22 03:40:07;;;;;;;;;;;18.50;99.90;;;-147.18;100.00;67318.16;4993029;28;19930;-87
2022/08/22 03:42:59;;;;;;;;;;;18.50;99.90;;;-147.18;100.00;67318.16;4986244;28;20005;-88
2022/08/22 03:45:56;;;;;;;;;;;18.50;99.90;;;-147.18;100.00;67318.16;4984750;28;20010;-87
2022/08/22 03:48:41;;;;;;;;;;;18.50;99.90;;;-147.18;100.00;67318.16;4991203;28;20004;-87
2022/08/22 03:51:32;;;;;;;;;;;18.40;99.90;;;-147.18;100.00;67318.16;4991396;28;19961;-87
2022/08/22 03:54:23;;;;;;;;;;;18.50;99.90;;;-147.18;100.00;67318.16;4992534;28;20013;-87
2022/08/22 03:57:22;;;;;;;;;;;18.40;99.90;;;-147.18;100.00;67318.16;4992250;28;19949;-87
2022/08/22 04:00:09;;;;;;;;;;;18.40;99.90;;;-147.18;100.00;67318.16;4972297;28;19928;-87
2022/08/22 04:02:57;;;;;;;;;;;18.40;99.90;;;-147.18;100.00;67318.16;4980956;28;20305;-87
2022/08/22 04:05:59;;;;;;;;;;;18.40;99.90;;;-147.18;100.00;67318.16;4984870;28;19973;-87
2022/08/22 04:09:04;;;;;;;;;;;18.40;99.90;;;-147.18;100.00;67318.16;4991718;28;19922;-87
2022/08/22 04:11:49;;;;;;;;;;;18.30;99.90;;;-147.18;100.00;67318.16;4993509;28;19929;-87
2022/08/22 04:14:27;;;;;;;;;;;18.30;99.90;;;-147.18;100.00;67318.16;4990162;28;20405;-87
2022/08/22 04:17:20;;;;;;;;;;;18.30;99.90;;;-147.18;100.00;67318.16;4992313;28;19928;-87
2022/08/22 04:20:07;;;;;;;;;;;18.30;99.90;;;-147.18;100.00;67318.16;4991170;28;19934;-87
2022/08/22 04:22:58;;;;;;;;;;;18.20;99.90;;;-147.18;100.00;67318.16;4986284;28;19933;-84
2022/08/22 04:25:31;;;;;;;;;;;18.20;99.90;;;-147.18;100.00;67318.16;4990656;28;19921;-84
2022/08/22 04:28:02;;;;;;;;;;;18.20;99.90;;;-147.18;100.00;67318.16;4991349;28;19926;-86
2022/08/22 04:30:35;;;;;;;;;;;18.20;99.90;;;-147.18;100.00;67318.16;4990004;28;19922;-87
2022/08/22 04:33:07;;;;;;;;;;;18.20;99.90;;;-147.18;100.00;67318.16;4990801;28;20351;-87
2022/08/22 04:35:37;;;;;;;;;;;18.20;99.90;;;-147.18;100.00;67318.16;4990380;28;19929;-87
2022/08/22 04:38:10;;;;;;;;;;;18.20;99.90;;;-147.18;100.00;67318.16;4989834;28;19926;-87
2022/08/22 04:40:42;;;;;;;;;;;18.20;99.90;;;-147.18;100.00;67318.16;4990144;28;19922;-89
2022/08/22 04:43:12;;;;;;;;;;;18.20;99.90;;;-147.18;100.00;67318.16;4991193;28;19928;-88
2022/08/22 04:45:43;;;;;;;;;;;18.20;99.90;;;-147.18;100.00;67318.16;4991671;28;20539;-88
2022/08/22 04:48:16;;;;;;;;;;;18.20;99.90;;;-147.18;100.00;67318.16;4990135;28;20383;-88
2022/08/22 04:50:48;;;;;;;;;;;18.30;99.90;;;-147.18;100.00;67318.16;4991873;28;20032;-88
2022/08/22 04:53:27;;;;;;;;;;;18.30;99.90;;;-147.18;100.00;67318.16;4990622;28;19969;-87
2022/08/22 04:56:07;;;;;;;;;;;18.30;99.90;;;-147.18;100.00;67318.16;4989112;28;19957;-89
2022/08/22 04:58:43;;;;;;;;;;;18.30;99.90;;;-147.18;100.00;67318.16;4977419;28;19960;-88
2022/08/22 05:01:16;;;;;;;;;;;18.30;99.90;;;-147.18;100.00;67318.16;4989614;28;19995;-88
2022/08/22 05:03:49;;;;;;;;;;;18.40;99.90;;;-147.18;100.00;67318.16;4992829;28;19926;-87
2022/08/22 05:06:18;;;;;;;;;;;18.40;99.90;;;-147.18;100.00;67318.16;4986087;28;19925;-88
2022/08/22 05:08:48;;;;;;;;;;;18.40;99.90;;;-147.18;100.00;67318.16;4987564;28;20838;-88
2022/08/22 05:11:18;;;;;;;;;;;18.50;99.90;;;-147.18;100.00;67318.16;4984993;28;19930;-88
2022/08/22 05:13:53;;;;;;;;;;;18.60;99.90;;;-147.18;100.00;67318.16;4991910;28;19964;-87
2022/08/22 05:16:23;;;;;;;;;;;18.60;99.90;;;-147.18;100.00;67318.16;4986974;28;19929;-87
2022/08/22 05:18:53;;;;;;;;;;;18.60;99.90;;;-147.18;100.00;67318.16;4975395;28;19928;-89
2022/08/22 05:21:24;;;;;;;;;;;18.60;99.90;;;-147.18;100.00;67318.16;4991145;28;19949;-86
2022/08/22 05:23:57;;;;;;;;;;;18.70;99.90;;;-147.18;100.00;67318.16;4988918;28;19925;-85
2022/08/22 05:26:25;;;;;;;;;;;18.70;99.90;;;-147.18;100.00;67318.16;4984425;28;19931;-85
2022/08/22 05:28:55;;;;;;;;;;;18.70;99.90;;;-147.18;100.00;67318.16;4990572;28;19922;-85
2022/08/22 05:31:26;;;;;;;;;;;18.80;99.90;;;-147.18;100.00;67318.16;4991079;28;19921;-85
2022/08/22 05:33:57;;;;;;;;;;;18.80;99.90;;;-147.18;100.00;67318.16;4984871;28;20031;-86
2022/08/22 05:36:27;;;;;;;;;;;18.80;99.90;;;-147.18;100.00;67318.16;4983878;28;19969;-87
2022/08/22 05:39:02;;;;;;;;;;;18.80;99.90;;;-147.18;100.00;67318.16;4989409;28;20076;-86
2022/08/22 05:41:35;;;;;;;;;;;18.90;99.90;;;-147.18;100.00;67318.16;4988363;28;19925;-86
2022/08/22 05:44:06;;;;;;;;;;;19.00;99.90;;;-147.18;100.00;67318.16;4989485;28;20008;-86
2022/08/22 05:46:40;;;;;;;;;;;19.00;99.90;;;-147.18;100.00;67318.16;4990625;28;19921;-87
2022/08/22 05:49:16;;;;;;;;;;;19.10;99.90;;;-147.18;100.00;67318.16;4992356;28;19922;-86
2022/08/22 05:51:48;;;;;;;;;;;19.10;99.90;;;-147.18;100.00;67318.16;4991531;28;19929;-86
2022/08/22 05:54:21;;;;;;;;;;;19.20;99.90;;;-147.18;100.00;67318.16;4993966;28;19938;-87
2022/08/22 05:56:52;;;;;;;;;;;19.30;99.90;;;-147.18;100.00;67318.16;4994710;28;20020;-87
2022/08/22 05:59:24;;;;;;;;;;;19.30;99.90;;;-147.18;100.00;67318.16;4995034;28;20012;-87
2022/08/22 06:02:00;;;;;;;;;;;19.40;99.90;;;-147.18;100.00;67318.16;4993805;28;19984;-86
2022/08/22 06:04:31;;;;;;;;;;;19.40;99.90;;;-147.18;100.00;67318.16;4987157;28;20032;-86
2022/08/22 06:07:02;;;;;;;;;;;19.50;99.90;;;-147.18;100.00;67318.16;4994721;28;19921;-85
2022/08/22 06:09:34;;;;;;;;;;;19.50;99.90;;;-147.18;100.00;67318.16;5000360;28;19932;-85
2022/08/22 06:12:05;;;;;;;;;;;19.50;99.90;;;-147.18;100.00;67318.16;4992902;28;19965;-85
2022/08/22 06:14:40;;;;;;;;;;;19.60;99.90;;;-147.18;100.00;67318.16;4989530;28;20306;-86
2022/08/22 06:17:11;;;;;;;;;;;19.60;99.90;;;-147.18;100.00;67318.16;4993405;28;19929;-86
2022/08/22 06:19:41;;;;;;;;;;;19.60;99.90;;;-147.18;100.00;67318.16;4991519;28;20017;-86
2022/08/22 06:22:09;;;;;;;;;;;19.70;99.90;;;-147.18;100.00;67318.16;4993387;28;19922;-86
2022/08/22 06:24:39;;;;;;;;;;;19.70;99.90;;;-147.18;100.00;67318.16;4992542;28;19949;-86
2022/08/22 06:27:10;;;;;;;;;;;19.80;99.90;;;-147.18;100.00;67318.16;4994284;28;19925;-86
2022/08/22 06:29:40;;;;;;;;;;;19.80;99.90;;;-147.18;100.00;67318.16;4994589;28;19921;-86
2022/08/22 06:32:12;;;;;;;;;;;19.90;99.90;;;-147.18;100.00;67318.16;4994440;28;19975;-86
2022/08/22 06:34:42;;;;;;;;;;;20.00;99.90;;;-147.18;100.00;67318.16;4991021;28;19926;-84
2022/08/22 06:37:13;;;;;;;;;;;20.00;99.90;;;-147.18;100.00;67318.16;4992627;28;20382;-87
2022/08/22 06:39:44;;;;;;;;;;;20.00;99.90;;;-147.18;100.00;67318.16;4994117;28;19932;-87
2022/08/22 06:42:13;;;;;;;;;;;20.00;99.90;;;-147.18;100.00;67318.16;4987217;28;20016;-87
2022/08/22 06:44:44;;;;;;;;;;;20.10;99.90;;;-147.18;100.00;67318.16;4993013;28;19921;-87
2022/08/22 06:47:15;;;;;;;;;;;20.20;99.90;;;-147.18;100.00;67318.16;4989125;28;19921;-86
2022/08/22 06:49:44;;;;;;;;;;;20.20;99.90;;;-147.18;100.00;67318.16;4990847;28;20020;-87
2022/08/22 06:52:17;;;;;;;;;;;20.20;99.90;;;-147.18;100.00;67318.16;4990622;28;19929;-87
2022/08/22 06:54:47;;;;;;;;;;;20.20;99.90;;;-147.18;100.00;67318.16;4993235;28;19922;-87
2022/08/22 06:57:26;;;;;;;;;;;20.30;99.90;;;-147.18;100.00;67318.16;4991039;28;21467;-87
2022/08/22 06:59:55;;;;;;;;;;;20.30;99.90;;;-147.18;100.00;67318.16;4992523;28;19965;-87
2022/08/22 07:02:28;;;;;;;;;;;20.30;99.90;;;-147.18;100.00;67318.16;4990603;28;19944;-87
2022/08/22 07:04:55;;;;;;;;;;;20.30;99.90;;;-147.18;100.00;67318.16;4992774;28;19930;-87
2022/08/22 07:07:26;;;;;;;;;;;20.40;99.90;;;-147.18;100.00;67318.16;4992348;28;19921;-87
2022/08/22 07:09:56;;;;;;;;;;;20.40;99.90;;;-147.18;100.00;67318.16;4993600;28;20016;-87
2022/08/22 07:12:29;;;;;;;;;;;20.50;99.90;;;-147.18;100.00;67318.16;4993681;28;20379;-87
2022/08/22 07:15:00;;;;;;;;;;;20.50;99.90;;;-147.18;100.00;67318.16;4991345;28;19925;-87
2022/08/22 07:17:31;;;;;;;;;;;20.60;99.90;;;-147.18;100.00;67318.16;4988418;28;20001;-87
2022/08/22 07:20:02;;;;;;;;;;;20.70;99.90;;;-147.18;100.00;67318.16;4993260;28;19968;-87
2022/08/22 07:22:31;;;;;;;;;;;20.80;99.90;;;-147.18;100.00;67318.16;4993573;28;19921;-87
2022/08/22 07:25:02;;;;;;;;;;;20.90;99.90;;;-147.18;100.00;67318.16;4989351;28;20009;-87
2022/08/22 07:27:46;;;;;;;;;;;20.90;99.90;;;-147.18;100.00;67318.16;4993123;28;20049;-88
2022/08/22 07:30:16;;;;;;;;;;;21.00;99.90;;;-147.18;100.00;67318.16;4992113;28;19922;-86
2022/08/22 07:32:51;;;;;;;;;;;21.10;99.90;;;-147.18;100.00;67318.16;4980184;28;19948;-87
2022/08/22 07:35:21;;;;;;;;;;;21.20;99.90;;;-147.18;100.00;67318.16;4990833;28;19928;-86
2022/08/22 07:37:56;;;;;;;;;;;21.20;99.90;;;-147.18;100.00;67318.16;4993142;28;20001;-87
2022/08/22 07:40:28;;;;;;;;;;;21.30;99.90;;;-147.18;100.00;67318.16;4993103;28;20034;-87
2022/08/22 07:43:00;;;;;;;;;;;21.40;99.90;;;-147.18;100.00;67318.16;4988309;28;20009;-87
2022/08/22 07:45:35;;;;;;;;;;;21.50;99.90;;;-147.18;100.00;67318.16;4991825;28;20341;-85
2022/08/22 07:48:20;;;;;;;;;;;21.50;99.90;;;-147.18;100.00;67318.16;4992669;28;19968;-84
2022/08/22 07:50:55;;;;;;;;;;;21.60;99.90;;;-147.18;100.00;67318.16;4992961;28;19926;-87
2022/08/22 07:53:28;;;;;;;;;;;21.70;99.50;;;-147.18;100.00;67318.16;4990917;28;19957;-88
2022/08/22 07:55:59;;;;;;;;;;;21.70;99.90;;;-147.18;100.00;67318.16;4983284;28;19990;-85
2022/08/22 07:58:29;;;;;;;;;;;21.80;99.90;;;-147.18;100.00;67318.16;4989726;28;20350;-88
2022/08/22 08:00:56;;;;;;;;;;;21.80;99.40;;;-147.18;100.00;67318.16;4992522;28;20377;-88
2022/08/22 08:03:26;;;;;;;;;;;21.90;99.30;;;-147.18;100.00;67318.16;4989068;28;19929;-88
2022/08/22 08:05:54;;;;;;;;;;;21.90;98.80;;;-147.18;100.00;67318.16;4992118;28;19928;-88
2022/08/22 08:08:24;;;;;;;;;;;21.90;98.60;;;-147.18;100.00;67318.16;4989791;28;19926;-89
2022/08/22 08:10:54;;;;;;;;;;;22.00;98.20;;;-147.18;100.00;67318.16;5012131;28;20429;-88
2022/08/22 08:13:28;;;;;;;;;;;22.10;98.60;;;-147.18;100.00;67318.16;4992312;28;19921;-88
2022/08/22 08:15:55;;;;;;;;;;;22.00;99.00;;;-147.18;100.00;67318.16;4992014;28;19925;-89
2022/08/22 08:18:26;;;;;;;;;;;22.10;98.40;;;-147.18;100.00;67318.16;4990854;28;19931;-91
2022/08/22 08:20:56;;;;;;;;;;;22.10;98.30;;;-147.18;100.00;67318.16;4992190;28;19964;-91
2022/08/22 08:23:23;;;;;;;;;;;22.20;97.80;;;-147.18;100.00;67318.16;4988552;28;20354;-91
2022/08/22 08:26:11;;;;;;;;;;;22.20;97.00;;;-147.18;100.00;67318.16;4988723;28;20764;-92
2022/08/22 08:28:41;;;;;;;;;;;22.20;96.40;;;-147.18;100.00;67318.16;4980769;28;19957;-92
2022/08/22 08:34:00;;;;;;;;;;;22.30;96.80;;;-147.18;100.00;67318.16;4976121;28;19972;-91
2022/08/22 08:36:36;;;;;;;;;;;22.40;96.10;;;-147.18;100.00;67318.16;4973968;28;19964;-89
2022/08/22 08:39:12;;;;;;;;;;;22.40;96.60;;;-147.18;100.00;67318.16;4997721;23;19928;-84
2022/08/22 08:41:56;;;;;;;;;;;22.50;97.00;;;-147.18;100.00;67318.16;4990436;28;20020;-84
2022/08/22 08:44:43;;;;;;;;;;;22.60;97.70;;;-147.18;100.00;67318.16;4991108;28;19929;-84
2022/08/22 08:47:27;;;;;;;;;;;22.70;95.00;;;-147.18;100.00;67318.16;4979386;28;20012;-84
2022/08/22 08:50:34;;;;;;;;;;;22.70;95.50;;;-147.18;100.00;67318.16;4971086;28;20342;-84
2022/08/22 08:53:51;;;;;;;;;;;22.80;94.50;;;-147.18;100.00;67318.16;4929468;29;20005;-84
2022/08/22 08:56:27;;;;;;;;;;;22.80;93.90;;;-147.18;100.00;67318.16;4929014;29;21736;-84
2022/08/22 08:59:00;;;;;;;;;;;22.90;94.00;;;-147.18;100.00;67318.16;4966110;28;19961;-84
2022/08/22 09:01:54;;;;;;;;;;;22.90;91.10;;;-147.18;100.00;67318.16;4967212;28;19968;-84
2022/08/22 09:04:35;;;;;;;;;;;22.90;89.10;;;-147.18;100.00;67318.16;4960180;28;20310;-84
2022/08/22 09:07:24;;;;;;;;;;;22.90;89.00;;;-147.18;100.00;67318.16;4968839;28;20366;-84
2022/08/22 09:10:08;;;;;;;;;;;23.00;90.30;;;-147.18;100.00;67318.16;4966818;28;19926;-84
2022/08/22 09:12:59;;;;;;;;;;;23.00;89.50;;;-147.18;100.00;67318.16;4983284;28;19925;-84
2022/08/22 09:15:40;;;;;;;;;;;23.10;88.90;;;-147.18;100.00;67318.16;4967181;28;20008;-83
2022/08/22 09:18:30;;;;;;;;;;;23.20;89.30;;;-147.18;100.00;67318.16;4968114;28;19933;-84
2022/08/22 09:21:33;;;;;;;;;;;23.20;87.70;;;-147.18;100.00;67318.16;4969902;28;19926;-84
2022/08/22 09:24:33;;;;;;;;;;;23.20;88.40;;;-147.18;100.00;67318.16;4968989;28;20370;-84
2022/08/22 09:27:05;;;;;;;;;;;23.30;86.30;;;-147.18;100.00;67318.16;4968184;28;19965;-84
2022/08/22 09:29:41;;;;;;;;;;;23.30;87.50;;;-147.18;100.00;67318.16;4952468;28;20402;-84
2022/08/22 09:32:13;;;;;;;;;;;23.40;86.50;;;-147.18;100.00;67318.16;4962536;28;19922;-83
2022/08/22 09:34:55;;;;;;;;;;;23.40;86.40;;;-147.18;100.00;67318.16;4970354;28;19929;-85
2022/08/22 09:37:30;;;;;;;;;;;23.40;85.50;;;-147.18;100.00;67318.16;4963947;28;19925;-84
2022/08/22 09:40:02;;;;;;;;;;;23.40;87.60;;;-147.18;100.00;67318.16;4971591;28;20405;-84
2022/08/22 09:42:38;;;;;;;;;;;23.50;86.80;;;-147.18;100.00;67318.16;4969005;28;19922;-82
2022/08/22 09:45:46;;;;;;;;;;;23.50;87.60;;;-147.18;100.00;67318.16;4968363;28;19937;-81
2022/08/22 09:48:28;;;;;;;;;;;23.50;84.80;;;-147.18;100.00;67318.16;4960915;28;19926;-82
2022/08/22 09:51:04;;;;;;;;;;;23.60;84.20;;;-147.18;100.00;67318.16;4971322;28;19949;-84
2022/08/22 09:53:52;;;;;;;;;;;23.60;82.50;;;-147.18;100.00;67318.16;4970340;28;19926;-82
2022/08/22 09:56:23;;;;;;;;;;;23.60;83.20;;;-147.18;100.00;67318.16;4967886;28;19929;-83
2022/08/22 09:58:59;;;;;;;;;;;23.60;83.70;;;-147.18;100.00;67318.16;4971338;28;19976;-82
2022/08/22 10:01:30;;;;;;;;;;;23.60;84.10;;;-147.18;100.00;67318.16;4971500;28;20029;-82
2022/08/22 10:04:40;;;;;;;;;;;23.60;83.10;;;-147.18;100.00;67318.16;4970197;28;19926;-85
2022/08/22 10:07:23;;;;;;;;;;;23.60;83.30;;;-147.18;100.00;67318.16;4969822;28;19926;-84
2022/08/22 10:09:57;;;;;;;;;;;23.70;81.70;;;-147.18;100.00;67318.16;4967457;28;19930;-84
2022/08/22 10:12:29;;;;;;;;;;;23.70;81.40;;;-147.18;100.00;67318.16;4971537;28;20279;-84
2022/08/22 10:15:09;;;;;;;;;;;23.70;82.00;;;-147.18;100.00;67318.16;4969661;28;19930;-84
2022/08/22 10:17:41;;;;;;;;;;;23.70;81.30;;;-147.18;100.00;67318.16;4971143;28;20584;-84
2022/08/22 10:20:15;;;;;;;;;;;23.70;81.00;;;-147.18;100.00;67318.16;4976106;28;20465;-84
2022/08/22 10:22:53;;;;;;;;;;;23.70;80.20;;;-147.18;100.00;67318.16;4960658;28;19921;-84
2022/08/22 10:25:29;;;;;;;;;;;23.80;79.50;;;-147.18;100.00;67318.16;4970877;28;19922;-84
2022/08/22 10:28:43;;;;;;;;;;;23.80;78.40;;;-147.18;100.00;67318.16;4985457;28;19953;-84
2022/08/22 10:31:22;;;;;;;;;;;23.80;78.50;;;-147.18;100.00;67318.16;4965432;28;19922;-84
2022/08/22 10:33:57;;;;;;;;;;;23.80;79.50;;;-147.18;100.00;67318.16;4967711;28;20362;-84
2022/08/22 10:36:32;;;;;;;;;;;23.90;78.70;;;-147.18;100.00;67318.16;4971667;28;19949;-84
2022/08/22 10:39:03;;;;;;;;;;;23.90;78.60;;;-147.18;100.00;67318.16;4971140;28;20050;-84
2022/08/22 10:41:36;;;;;;;;;;;23.90;79.30;;;-147.18;100.00;67318.16;4986087;28;19922;-83
2022/08/22 10:44:09;;;;;;;;;;;24.00;81.40;;;-147.18;100.00;67318.16;4966908;28;19941;-85
2022/08/22 10:46:39;;;;;;;;;;;24.00;78.50;;;-147.18;100.00;67318.16;4969028;28;20386;-79
2022/08/22 10:49:11;;;;;;;;;;;24.10;77.80;;;-147.18;100.00;67318.16;4972572;28;20742;-79
2022/08/22 10:51:44;;;;;;;;;;;24.10;77.90;;;-147.18;100.00;67318.16;4971239;28;19926;-78
2022/08/22 10:54:32;;;;;;;;;;;24.10;77.40;;;-147.18;100.00;67318.16;4970656;28;20343;-81
2022/08/22 10:57:08;;;;;;;;;;;24.00;77.30;;;-147.18;100.00;67318.16;4968695;28;19926;-82
2022/08/22 10:59:40;;;;;;;;;;;24.10;77.00;;;-147.18;100.00;67318.16;4972844;28;19960;-78
2022/08/22 11:02:30;;;;;;;;;;;24.10;76.10;;;-147.18;100.00;67318.16;4971030;28;20061;-80
2022/08/22 11:05:26;;;;;;;;;;;24.10;76.60;;;-147.18;100.00;67318.16;4967674;28;19933;-83
2022/08/22 11:08:05;;;;;;;;;;;24.10;77.10;;;-147.18;100.00;67318.16;4973326;28;19988;-82
2022/08/22 11:10:43;;;;;;;;;;;24.20;76.80;;;-147.18;100.00;67318.16;4973475;28;19985;-79
2022/08/22 11:13:16;;;;;;;;;;;24.20;75.70;;;-147.18;100.00;67318.16;4969873;28;19976;-79
2022/08/22 11:15:53;;;;;;;;;;;24.20;75.30;;;-147.18;100.00;67318.16;4974956;28;20449;-79
2022/08/22 11:18:27;;;;;;;;;;;24.20;74.90;;;-147.18;100.00;67318.16;4969299;28;20433;-79
2022/08/22 11:20:59;;;;;;;;;;;24.10;74.80;;;-147.18;100.00;67318.16;4970829;28;19929;-79
2022/08/22 11:23:37;;;;;;;;;;;24.20;76.80;;;-147.18;100.00;67318.16;4971149;28;20016;-79
2022/08/22 11:26:15;;;;;;;;;;;24.20;76.10;;;-147.18;100.00;67318.16;4971078;28;20386;-80
2022/08/22 11:29:01;;;;;;;;;;;24.20;76.70;;;-147.18;100.00;67318.16;4984130;28;19925;-80
2022/08/22 11:31:36;;;;;;;;;;;24.20;76.10;;;-147.18;100.00;67318.16;4975134;28;19926;-79
2022/08/22 11:34:09;;;;;;;;;;;24.20;77.10;;;-147.18;100.00;67318.16;4971725;28;19960;-80
2022/08/22 11:36:39;;;;;;;;;;;24.20;75.60;;;-147.18;100.00;67318.16;4980732;28;19964;-79
2022/08/22 11:39:16;;;;;;;;;;;24.20;76.30;;;-147.18;100.00;67318.16;4980268;28;19957;-80
2022/08/22 11:41:52;;;;;;;;;;;24.30;77.90;;;-147.18;100.00;67318.16;4973828;28;19926;-79
2022/08/22 11:44:26;;;;;;;;;;;24.40;78.00;;;-147.18;100.00;67318.16;4971658;28;20294;-79
2022/08/22 11:46:56;;;;;;;;;;;24.40;77.90;;;-147.18;100.00;67318.16;4965021;28;20012;-79
2022/08/22 11:49:36;;;;;;;;;;;24.50;79.30;;;-147.18;100.00;67318.16;4969284;28;20284;-79
2022/08/22 11:52:09;;;;;;;;;;;24.60;76.70;;;-147.18;100.00;67318.16;4969374;28;19926;-79
2022/08/22 11:55:00;;;;;;;;;;;24.50;75.40;;;-147.18;100.00;67318.16;4970526;28;19944;-80
2022/08/22 11:57:33;;;;;;;;;;;24.50;76.60;;;-147.18;100.00;67318.16;4963242;28;19933;-80
2022/08/22 12:00:15;;;;;;;;;;;24.50;74.40;;;-147.18;100.00;67318.16;4968761;28;19922;-80
2022/08/22 12:02:56;;;;;;;;;;;24.60;74.40;;;-147.18;100.00;67318.16;4971178;28;19926;-80
2022/08/22 12:05:29;;;;;;;;;;;24.60;74.40;;;-147.18;100.00;67318.16;4962245;28;20024;-80
2022/08/22 12:08:08;;;;;;;;;;;24.60;75.50;;;-147.18;100.00;67318.16;4966485;28;19973;-80
2022/08/22 12:10:43;;;;;;;;;;;24.60;73.70;;;-147.18;100.00;67318.16;4971040;28;19922;-80
2022/08/22 12:13:16;;;;;;;;;;;24.70;73.90;;;-147.18;100.00;67318.16;4972064;28;20009;-80
2022/08/22 12:15:48;;;;;;;;;;;24.70;76.00;;;-147.18;100.00;67318.16;4967918;28;19929;-80
2022/08/22 12:18:34;;;;;;;;;;;24.70;75.30;;;-147.18;100.00;67318.16;4965235;28;19937;-80
2022/08/22 12:21:25;;;;;;;;;;;24.70;73.50;;;-147.18;100.00;67318.16;4968869;28;19961;-80
2022/08/22 12:24:14;;;;;;;;;;;24.80;75.90;;;-147.18;100.00;67318.16;4960630;28;19926;-80
2022/08/22 12:26:47;;;;;;;;;;;24.80;74.40;;;-147.18;100.00;67318.16;4968008;28;19922;-81
2022/08/22 12:29:30;;;;;;;;;;;24.80;74.00;;;-147.18;100.00;67318.16;4971611;28;19926;-79
2022/08/22 12:32:23;;;;;;;;;;;24.80;72.30;;;-147.18;100.00;67318.16;4971208;28;19922;-77